Time;durP1;ratioP1;P1;durP2;ratioP2;P2;SDS_P1;SDS_P2;PMS_P1;PMS_P2;Temp;Humidity;BMP_temperature;BMP_pressure;BME280_temperature;BME280_humidity;BME280_pressure;Samples;Min_cycle;Max_cycle;Signal;HPM_P1;HPM_P2
2022/06/22 00:01:06;;;;;;;10.00;2.25;;;;;;;13.61;100.00;98222.59;5062944;28;20048;-95
2022/06/22 00:03:34;;;;;;;7.60;2.35;;;;;;;13.73;100.00;98233.59;5064075;28;20058;-95
2022/06/22 00:06:00;;;;;;;10.15;2.50;;;;;;;13.80;100.00;98224.63;5054703;28;20483;-96
2022/06/22 00:08:35;;;;;;;8.70;2.45;;;;;;;13.82;100.00;98228.94;5039965;28;20044;-96
2022/06/22 00:11:11;;;;;;;9.52;2.75;;;;;;;13.91;100.00;98232.16;5045851;28;20423;-96
2022/06/22 00:13:47;;;;;;;7.82;2.33;;;;;;;13.90;100.00;98231.28;5054082;28;20024;-95
2022/06/22 00:16:22;;;;;;;9.85;2.50;;;;;;;13.78;100.00;98226.47;5058159;28;20143;-95
2022/06/22 00:18:50;;;;;;;8.27;2.83;;;;;;;13.77;100.00;98217.72;5061096;28;20032;-95
2022/06/22 00:21:39;;;;;;;11.23;2.40;;;;;;;13.66;100.00;98232.91;5044175;28;20035;-94
2022/06/22 00:24:24;;;;;;;7.55;2.33;;;;;;;13.52;100.00;98232.47;5042958;28;20030;-94
2022/06/22 00:27:19;;;;;;;10.55;2.83;;;;;;;13.49;100.00;98233.41;5030980;28;20044;-96
2022/06/22 00:30:14;;;;;;;10.35;2.50;;;;;;;13.47;100.00;98227.34;5042608;28;20566;-95
2022/06/22 00:32:54;;;;;;;9.77;2.38;;;;;;;13.46;100.00;98229.13;5043534;28;20037;-96
2022/06/22 00:36:11;;;;;;;9.80;2.50;;;;;;;13.38;100.00;98230.25;5040638;28;20047;-96
2022/06/22 00:38:37;;;;;;;10.52;2.60;;;;;;;13.31;100.00;98225.16;4952409;28;20085;-96
2022/06/22 00:41:21;;;;;;;8.52;2.55;;;;;;;13.27;100.00;98235.75;4963543;28;20090;-96
2022/06/22 00:43:48;;;;;;;9.15;2.80;;;;;;;13.23;100.00;98231.50;4955837;28;20063;-95
2022/06/22 00:46:18;;;;;;;8.88;2.38;;;;;;;13.42;100.00;98237.13;4968346;28;20572;-95
2022/06/22 00:48:46;;;;;;;9.25;2.72;;;;;;;13.38;100.00;98235.50;4967290;28;20027;-95
2022/06/22 00:51:16;;;;;;;9.63;2.60;;;;;;;13.31;100.00;98229.53;4962812;28;20110;-95
2022/06/22 00:53:43;;;;;;;8.35;2.40;;;;;;;13.31;100.00;98227.78;4967441;28;20070;-95
2022/06/22 00:56:22;;;;;;;9.23;2.65;;;;;;;13.26;100.00;98228.81;4949954;28;20082;-95
2022/06/22 00:58:53;;;;;;;8.57;2.40;;;;;;;13.25;100.00;98227.06;4951651;28;20078;-95
2022/06/22 01:01:32;;;;;;;11.45;2.55;;;;;;;13.29;100.00;98221.72;4947011;28;20042;-96
2022/06/22 01:04:06;;;;;;;10.85;2.72;;;;;;;13.34;100.00;98229.44;4946801;28;20114;-96
2022/06/22 01:07:15;;;;;;;9.45;2.28;;;;;;;13.35;100.00;98225.06;4950417;28;20122;-95
2022/06/22 01:09:57;;;;;;;8.40;2.45;;;;;;;13.30;100.00;98214.72;4925831;29;20498;-96
2022/06/22 01:12:36;;;;;;;9.38;2.45;;;;;;;13.31;100.00;98213.81;4970449;28;20194;-96
2022/06/22 01:15:34;;;;;;;8.20;2.38;;;;;;;13.27;100.00;98212.19;4999274;28;20523;-95
2022/06/22 01:18:41;;;;;;;9.32;2.40;;;;;;;13.24;100.00;98207.91;4979807;28;20042;-96
2022/06/22 01:21:33;;;;;;;11.25;2.60;;;;;;;13.12;100.00;98211.75;4998481;28;20041;-96
2022/06/22 01:24:05;;;;;;;10.30;2.58;;;;;;;13.12;100.00;98213.47;5002160;28;20034;-96
2022/06/22 01:26:52;;;;;;;8.73;2.47;;;;;;;13.17;100.00;98203.75;4986694;28;20093;-95
2022/06/22 01:29:26;;;;;;;12.55;2.20;;;;;;;13.21;100.00;98201.88;5002395;28;20026;-96
2022/06/22 01:32:37;;;;;;;9.48;2.65;;;;;;;13.26;100.00;98216.59;5006005;28;20090;-95
2022/06/22 01:35:19;;;;;;;8.13;2.35;;;;;;;13.21;100.00;98208.00;4974670;28;20041;-96
2022/06/22 01:37:45;;;;;;;8.63;2.50;;;;;;;13.18;100.00;98221.19;4985514;28;20512;-96
2022/06/22 01:40:33;;;;;;;8.65;2.25;;;;;;;13.13;100.00;98208.19;4996055;28;20034;-95
2022/06/22 01:43:15;;;;;;;8.02;2.35;;;;;;;13.08;100.00;98215.34;5014212;28;20048;-96
2022/06/22 01:45:57;;;;;;;7.60;2.15;;;;;;;12.92;100.00;98209.66;5034682;28;20136;-96
2022/06/22 01:48:39;;;;;;;10.63;2.05;;;;;;;12.69;100.00;98207.66;5037139;28;20526;-96
2022/06/22 01:51:20;;;;;;;6.80;2.20;;;;;;;12.59;100.00;98217.50;5036019;28;20029;-96
2022/06/22 01:53:59;;;;;;;9.02;2.47;;;;;;;12.55;100.00;98213.25;5038908;28;20060;-95
2022/06/22 01:56:39;;;;;;;6.60;2.03;;;;;;;12.54;100.00;98213.28;5036639;28;20079;-96
2022/06/22 01:59:31;;;;;;;9.80;2.20;;;;;;;12.59;100.00;98216.66;5032504;28;20068;-95
2022/06/22 02:02:35;;;;;;;7.22;2.40;;;;;;;12.71;100.00;98223.34;5035258;28;20124;-95
2022/06/22 02:05:29;;;;;;;9.27;2.42;;;;;;;12.78;100.00;98214.41;5029999;28;20071;-95
2022/06/22 02:08:12;;;;;;;8.00;2.30;;;;;;;12.59;100.00;98204.41;5034878;28;20037;-95
2022/06/22 02:10:38;;;;;;;6.97;2.00;;;;;;;12.45;100.00;98215.25;5031943;28;20031;-96
2022/06/22 02:13:44;;;;;;;6.97;2.28;;;;;;;12.26;100.00;98201.78;5036490;28;20101;-95
2022/06/22 02:16:25;;;;;;;9.27;2.13;;;;;;;12.19;100.00;98202.84;5034144;28;20124;-94
2022/06/22 02:18:57;;;;;;;7.43;2.05;;;;;;;12.14;100.00;98217.78;5033567;28;20033;-96
2022/06/22 02:21:44;;;;;;;7.90;2.22;;;;;;;12.08;100.00;98213.56;5057561;28;20104;-95
2022/06/22 02:24:12;;;;;;;9.95;2.60;;;;;;;12.07;100.00;98216.22;5032258;28;20035;-96
2022/06/22 02:26:57;;;;;;;9.20;2.33;;;;;;;11.93;100.00;98206.91;5036938;28;20036;-96
2022/06/22 02:29:29;;;;;;;7.13;2.00;;;;;;;11.87;100.00;98195.72;5050101;28;20028;-96
2022/06/22 02:31:59;;;;;;;7.63;1.98;;;;;;;11.84;100.00;98196.66;5048452;28;20024;-96
2022/06/22 02:34:25;;;;;;;7.38;2.03;;;;;;;11.84;100.00;98196.66;5055209;28;20028;-96
2022/06/22 02:36:53;;;;;;;6.38;1.73;;;;;;;11.76;100.00;98198.56;5041076;28;20032;-96
2022/06/22 02:39:23;;;;;;;8.50;2.38;;;;;;;11.65;100.00;98198.84;5041334;28;20021;-96
2022/06/22 02:44:39;;;;;;;8.00;1.92;;;;;;;11.55;100.00;98198.19;5082305;28;20050;-95
2022/06/22 02:47:19;;;;;;;7.60;1.88;;;;;;;11.65;100.00;98204.06;5062223;28;20118;-95
2022/06/22 02:50:21;;;;;;;8.00;2.00;;;;;;;11.55;100.00;98197.31;5058557;28;20028;-95
2022/06/22 02:52:50;;;;;;;11.10;2.45;;;;;;;11.71;100.00;98190.00;4960854;28;20046;-94
2022/06/22 02:55:21;;;;;;;6.95;2.15;;;;;;;11.84;100.00;98204.47;4960350;28;20035;-96
2022/06/22 02:57:52;;;;;;;7.22;2.28;;;;;;;11.81;100.00;98206.31;4946883;28;20175;-96
2022/06/22 03:00:24;;;;;;;6.40;2.10;;;;;;;11.66;100.00;98187.47;4967209;28;20043;-96
2022/06/22 03:02:54;;;;;;;7.68;2.20;;;;;;;11.61;100.00;98191.97;4964033;28;20123;-96
2022/06/22 03:05:24;;;;;;;8.95;2.00;;;;;;;11.50;100.00;98188.75;4959990;28;20038;-96
2022/06/22 03:07:57;;;;;;;9.73;2.35;;;;;;;11.49;100.00;98189.63;4950418;28;20062;-95
2022/06/22 03:10:48;;;;;;;8.77;2.30;;;;;;;11.40;100.00;98198.53;4944339;28;20043;-96
2022/06/22 03:13:20;;;;;;;8.45;2.45;;;;;;;11.47;100.00;98199.22;4939293;28;20115;-96
2022/06/22 03:15:47;;;;;;;8.93;2.28;;;;;;;11.66;100.00;98199.69;4949633;28;20812;-96
2022/06/22 03:18:23;;;;;;;8.38;2.08;;;;;;;11.63;100.00;98199.75;4944113;28;20046;-96
2022/06/22 03:20:57;;;;;;;7.22;2.00;;;;;;;11.35;100.00;98193.38;4960367;28;20105;-96
2022/06/22 03:23:42;;;;;;;6.07;2.22;;;;;;;11.30;100.00;98208.31;4952290;28;20054;-96
2022/06/22 03:26:16;;;;;;;7.38;1.90;;;;;;;11.19;100.00;98200.69;4964225;28;20039;-96
2022/06/22 03:28:47;;;;;;;8.65;2.15;;;;;;;11.15;100.00;98211.19;4960249;28;20037;-95
2022/06/22 03:31:28;;;;;;;6.47;2.10;;;;;;;11.28;100.00;98216.13;5038489;28;20088;-95
2022/06/22 03:34:15;;;;;;;8.38;1.98;;;;;;;11.64;100.00;98204.94;5036631;28;20040;-94
2022/06/22 03:37:05;;;;;;;8.23;2.05;;;;;;;11.46;100.00;98203.59;5031662;28;20087;-95
2022/06/22 03:39:36;;;;;;;6.80;2.10;;;;;;;11.30;100.00;98215.25;5037068;28;20040;-95
2022/06/22 03:42:10;;;;;;;7.88;2.00;;;;;;;11.14;100.00;98199.06;5043259;28;20028;-94
2022/06/22 03:44:48;;;;;;;7.78;1.92;;;;;;;11.25;100.00;98221.44;5043157;28;20049;-95
2022/06/22 03:47:22;;;;;;;7.22;2.00;;;;;;;11.16;100.00;98216.41;5034522;28;20029;-96
2022/06/22 03:49:59;;;;;;;9.68;2.17;;;;;;;11.12;100.00;98224.31;5045989;28;20041;-95
2022/06/22 03:52:47;;;;;;;7.43;2.10;;;;;;;11.03;100.00;98212.31;5030947;28;20022;-96
2022/06/22 03:55:22;;;;;;;8.50;2.30;;;;;;;11.15;100.00;98219.03;5046916;28;20407;-95
2022/06/22 03:57:52;;;;;;;7.05;1.90;;;;;;;11.16;100.00;98226.84;5036857;28;20468;-95
2022/06/22 04:00:19;;;;;;;9.93;2.45;;;;;;;11.32;100.00;98224.78;5035367;28;20109;-95
2022/06/22 04:02:45;;;;;;;7.43;2.03;;;;;;;11.20;100.00;98220.69;5036339;28;20037;-95
2022/06/22 04:05:27;;;;;;;9.27;2.28;;;;;;;11.15;100.00;98217.28;5033267;28;20025;-94
2022/06/22 04:07:54;;;;;;;7.10;2.25;;;;;;;11.20;100.00;98227.63;5043458;28;20087;-95
2022/06/22 04:10:45;;;;;;;7.97;2.10;;;;;;;11.21;100.00;98239.81;5048524;28;20021;-95
2022/06/22 04:13:21;;;;;;;8.93;2.30;;;;;;;11.19;100.00;98226.78;5036124;28;20029;-96
2022/06/22 04:16:22;;;;;;;7.72;2.40;;;;;;;11.21;100.00;98231.97;5043633;28;20029;-95
2022/06/22 04:19:17;;;;;;;7.22;2.00;;;;;;;11.34;100.00;98229.97;5029706;28;20041;-96
2022/06/22 04:21:51;;;;;;;7.75;1.90;;;;;;;11.36;100.00;98234.25;5039669;28;20060;-96
2022/06/22 04:24:23;;;;;;;6.60;1.83;;;;;;;11.47;100.00;98228.81;5035522;28;20035;-95
2022/06/22 04:26:55;;;;;;;8.23;2.10;;;;;;;11.51;100.00;98216.53;5040073;28;20470;-95
2022/06/22 04:29:30;;;;;;;10.25;2.35;;;;;;;11.83;100.00;98223.69;5035775;28;20476;-95
2022/06/22 04:32:03;;;;;;;7.10;2.03;;;;;;;12.02;100.00;98216.28;5038215;28;20037;-96
2022/06/22 04:34:36;;;;;;;8.02;2.10;;;;;;;12.18;100.00;98211.56;5038635;28;20110;-96
2022/06/22 04:37:09;;;;;;;6.00;1.92;;;;;;;12.40;100.00;98195.34;5040006;28;20121;-96
2022/06/22 04:39:45;;;;;;;7.60;2.10;;;;;;;12.53;100.00;98199.38;5039534;28;20025;-96
2022/06/22 04:42:11;;;;;;;9.02;2.20;;;;;;;12.50;100.00;98185.50;5038400;28;20039;-96
2022/06/22 04:44:49;;;;;;;8.48;2.05;;;;;;;12.72;100.00;98177.94;5039012;28;20133;-94
2022/06/22 04:47:17;;;;;;;8.93;2.50;;;;;;;12.86;100.00;98182.78;5034940;28;20052;-96
2022/06/22 04:49:50;;;;;;;10.85;2.70;;;;;;;12.94;100.00;98188.69;5031971;28;20045;-95
2022/06/22 04:52:45;;;;;;;9.50;2.40;;;;;;;12.79;100.00;98198.69;5035449;28;20033;-96
2022/06/22 04:55:17;;;;;;;10.27;2.60;;;;;;;12.62;100.00;98183.44;5033163;28;20046;-94
2022/06/22 04:57:47;;;;;;;7.35;2.22;;;;;;;12.66;100.00;98204.28;5040221;28;20129;-95
2022/06/22 05:00:22;;;;;;;6.10;1.90;;;;;;;12.55;100.00;98200.16;5039979;28;20422;-95
2022/06/22 05:02:54;;;;;;;6.40;1.88;;;;;;;12.66;100.00;98207.75;5048214;28;21847;-95
2022/06/22 05:05:25;;;;;;;6.45;1.85;;;;;;;12.68;100.00;98205.97;5055112;28;20018;-95
2022/06/22 05:08:12;;;;;;;8.85;1.90;;;;;;;12.70;100.00;98219.00;5044292;28;20050;-96
2022/06/22 05:10:56;;;;;;;8.25;1.98;;;;;;;12.66;100.00;98212.13;5042545;28;20041;-96
2022/06/22 05:13:40;;;;;;;6.32;1.50;;;;;;;12.76;100.00;98222.31;5048727;28;20029;-95
2022/06/22 05:16:13;;;;;;;8.43;2.17;;;;;;;12.80;100.00;98223.94;5048551;28;20021;-95
2022/06/22 05:18:41;;;;;;;7.32;1.65;;;;;;;12.79;100.00;98226.63;5070280;28;20033;-96
2022/06/22 05:21:29;;;;;;;7.70;1.98;;;;;;;12.87;100.00;98221.16;5044996;28;20495;-96
2022/06/22 05:24:02;;;;;;;7.85;1.77;;;;;;;12.99;100.00;98218.22;5048738;28;20109;-96
2022/06/22 05:26:29;;;;;;;6.88;2.10;;;;;;;12.98;100.00;98219.97;5033655;28;20533;-96
2022/06/22 05:29:06;;;;;;;7.78;1.85;;;;;;;13.17;100.00;98231.69;5038474;28;20028;-96
2022/06/22 05:31:44;;;;;;;6.57;1.98;;;;;;;13.11;100.00;98225.72;5046941;28;20033;-96
2022/06/22 05:34:17;;;;;;;8.20;2.00;;;;;;;13.28;100.00;98235.72;5044269;28;20025;-95
2022/06/22 05:36:48;;;;;;;6.68;1.80;;;;;;;13.25;100.00;98233.19;5035142;28;20025;-95
2022/06/22 05:39:15;;;;;;;7.60;1.80;;;;;;;13.32;100.00;98226.88;5037196;28;20025;-96
2022/06/22 05:41:45;;;;;;;5.60;1.95;;;;;;;13.42;100.00;98231.88;5042182;28;20021;-95
2022/06/22 05:44:31;;;;;;;6.20;1.85;;;;;;;13.47;100.00;98230.84;5084545;23;20057;-94
2022/06/22 05:47:17;;;;;;;8.23;1.75;;;;;;;13.64;100.00;98232.97;5073395;28;20031;-92
2022/06/22 05:50:38;;;;;;;7.50;1.70;;;;;;;13.63;100.00;98233.84;5099035;28;20799;-93
2022/06/22 05:53:30;;;;;;;6.22;1.42;;;;;;;13.82;100.00;98243.81;5094953;28;20024;-93
2022/06/22 06:03:16;;;;;;;;;;;;;;;;;;;;;
2022/06/22 06:06:13;;;;;;;8.27;1.85;;;;;;;14.12;100.00;98249.00;4935713;29;20028;-92
2022/06/22 06:09:04;;;;;;;5.38;1.38;;;;;;;14.12;100.00;98238.50;4936379;29;20122;-93
2022/06/22 06:12:34;;;;;;;;;;;;;;;;;;;;;
2022/06/22 06:15:24;;;;;;;5.57;1.70;;;;;;;14.19;100.00;98236.53;4926084;29;20035;-93
2022/06/22 06:29:00;;;;;;;7.18;1.73;;;;;;;16.38;100.00;98220.72;4933367;29;20049;-93
2022/06/22 06:31:58;;;;;;;6.22;1.60;;;;;;;16.44;100.00;98224.91;4932833;29;20509;-94
2022/06/22 06:38:08;;;;;;;4.95;1.33;;;;;;;14.94;100.00;98246.31;4968191;28;20054;-94
2022/06/22 06:40:45;;;;;;;5.60;1.45;;;;;;;14.97;100.00;98249.69;5025324;28;20034;-95
2022/06/22 06:44:32;;;;;;;7.30;1.50;;;;;;;15.03;100.00;98253.88;5003552;28;20410;-96
2022/06/22 06:51:15;;;;;;;;;;;;;;;;;;;;;
2022/06/22 06:54:25;;;;;;;6.30;1.58;;;;;;;15.30;100.00;98248.53;5014480;28;20041;-96
2022/06/22 06:57:34;;;;;;;7.45;2.00;;;;;;;15.34;100.00;98258.03;4928205;29;20040;-94
2022/06/22 07:04:11;;;;;;;7.05;1.90;;;;;;;15.50;100.00;98247.78;4960006;28;20144;-94
2022/06/22 07:06:48;;;;;;;8.63;2.22;;;;;;;15.67;100.00;98229.63;4966802;28;20027;-94
2022/06/22 07:09:21;;;;;;;6.82;2.00;;;;;;;15.62;100.00;98233.34;4943558;29;20322;-89
2022/06/22 07:11:49;;;;;;;7.93;2.38;;;;;;;15.78;100.00;98242.38;4946981;28;20079;-89
2022/06/22 07:14:33;;;;;;;8.75;2.70;;;;;;;15.91;100.00;98239.28;4939722;28;20046;-89
2022/06/22 07:17:03;;;;;;;8.45;2.65;;;;;;;15.78;100.00;98233.59;4961272;28;20039;-92
2022/06/22 07:19:36;;;;;;;9.82;2.55;;;;;;;15.90;100.00;98235.81;4934934;29;20033;-90
2022/06/22 07:22:10;;;;;;;8.15;2.65;;;;;;;15.87;100.00;98234.13;4941937;28;20047;-90
2022/06/22 07:24:45;;;;;;;9.82;2.55;;;;;;;15.94;100.00;98232.13;4938731;29;20185;-90
2022/06/22 07:27:55;;;;;;;7.90;2.42;;;;;;;16.09;100.00;98227.16;4928361;29;20043;-90
2022/06/22 07:30:35;;;;;;;8.55;2.35;;;;;;;16.16;100.00;98226.88;4928918;29;20062;-89
2022/06/22 07:33:36;;;;;;;7.78;2.47;;;;;;;15.96;100.00;98224.19;4970681;28;20049;-90
2022/06/22 07:36:24;;;;;;;9.52;2.15;;;;;;;16.01;100.00;98220.44;5051345;28;20482;-90
2022/06/22 07:38:59;;;;;;;6.40;2.10;;;;;;;16.07;100.00;98221.13;5048581;28;20059;-90
2022/06/22 07:41:27;;;;;;;7.40;2.20;;;;;;;16.03;100.00;98210.75;5047203;28;20033;-90
2022/06/22 07:44:00;;;;;;;8.32;2.58;;;;;;;16.31;100.00;98206.97;5052894;28;20498;-90
2022/06/22 07:46:44;;;;;;;9.80;2.65;;;;;;;16.37;100.00;98208.50;5069478;28;20757;-90
2022/06/22 07:49:34;;;;;;;7.18;2.03;;;;;;;16.19;100.00;98210.13;5072270;28;20040;-90
2022/06/22 07:52:04;;;;;;;8.43;2.38;;;;;;;16.30;100.00;98209.69;5069298;28;20614;-89
2022/06/22 07:54:38;;;;;;;7.88;2.67;;;;;;;16.41;100.00;98211.84;5059286;28;20037;-90
2022/06/22 07:57:22;;;;;;;9.10;2.30;;;;;;;16.63;100.00;98211.81;5066391;28;20055;-90
2022/06/22 07:59:54;;;;;;;8.75;2.10;;;;;;;16.65;100.00;98216.09;5067511;28;20439;-90
2022/06/22 08:02:28;;;;;;;6.88;1.92;;;;;;;16.53;100.00;98213.97;5078824;28;21328;-89
2022/06/22 08:05:00;;;;;;;11.90;2.38;;;;;;;16.77;100.00;98212.09;5072391;28;20881;-90
2022/06/22 08:07:35;;;;;;;7.68;2.03;;;;;;;16.95;100.00;98214.84;5069334;28;20079;-89
2022/06/22 08:10:01;;;;;;;5.80;1.73;;;;;;;16.82;100.00;98214.50;5064570;28;20122;-90
2022/06/22 08:12:45;;;;;;;9.05;1.90;;;;;;;17.62;100.00;98203.06;5062139;28;20024;-89
2022/06/22 08:15:16;;;;;;;5.65;1.73;;;;;;;18.46;100.00;98194.66;5058190;28;20064;-90
2022/06/22 08:17:50;;;;;;;8.23;2.15;;;;;;;17.30;100.00;98194.84;5074919;28;20522;-91
2022/06/22 08:20:23;;;;;;;6.15;1.75;;;;;;;17.10;100.00;98201.00;5067926;28;20032;-91
2022/06/22 08:23:44;;;;;;;6.95;1.75;;;;;;;17.21;100.00;98206.66;5071949;28;20020;-96
2022/06/22 08:26:26;;;;;;;5.40;1.40;;;;;;;17.26;100.00;98195.91;5070089;23;20061;-96
2022/06/22 08:28:53;;;;;;;7.00;1.40;;;;;;;17.38;100.00;98198.00;5055160;28;20490;-96
2022/06/22 08:31:19;;;;;;;5.90;1.50;;;;;;;17.39;100.00;98202.31;5041921;28;20037;-94
2022/06/22 08:33:52;;;;;;;7.50;1.67;;;;;;;17.48;100.00;98197.56;5044854;28;20085;-95
2022/06/22 08:36:17;;;;;;;;;;;;;;;17.57;100.00;98208.53;5042772;28;20158;-94
2022/06/22 08:39:07;;;;;;;5.77;1.63;;;;;;;17.73;100.00;98197.25;5055562;28;19897;-95
2022/06/22 08:41:59;;;;;;;6.10;1.90;;;;;;;17.65;100.00;98195.00;5060799;28;20312;-95
2022/06/22 08:44:36;;;;;;;7.78;1.80;;;;;;;17.85;100.00;98196.69;5052366;28;20028;-95
2022/06/22 08:47:30;;;;;;;6.20;1.60;;;;;;;19.14;100.00;98199.13;5050808;28;20025;-95
2022/06/22 08:50:17;;;;;;;6.55;1.60;;;;;;;19.80;100.00;98192.06;5064102;28;20025;-96
2022/06/22 08:53:07;;;;;;;6.38;1.50;;;;;;;20.48;100.00;98171.47;5064300;28;20475;-96
2022/06/22 08:56:01;;;;;;;6.90;1.65;;;;;;;20.18;100.00;98174.94;5043037;28;20021;-94
2022/06/22 08:59:10;;;;;;;6.28;1.67;;;;;;;19.02;100.00;98187.41;5044487;28;20059;-96
2022/06/22 09:01:44;;;;;;;5.05;1.55;;;;;;;18.79;100.00;98190.34;5050872;28;20043;-93
2022/06/22 09:04:31;;;;;;;6.70;1.63;;;;;;;19.00;100.00;98186.63;5046861;28;20029;-94
2022/06/22 09:07:18;;;;;;;6.65;1.60;;;;;;;19.64;100.00;98181.47;5037770;28;20631;-94
2022/06/22 09:10:09;;;;;;;7.75;1.70;;;;;;;19.57;100.00;98194.16;5039471;28;20459;-94
2022/06/22 09:12:51;;;;;;;7.05;1.70;;;;;;;19.49;100.00;98192.88;5058794;28;20132;-94
2022/06/22 09:15:29;;;;;;;6.68;1.60;;;;;;;19.21;100.00;98202.31;5042197;28;20032;-93
2022/06/22 09:18:39;;;;;;;5.95;1.50;;;;;;;19.66;100.00;98190.16;5050487;28;20468;-95
2022/06/22 09:21:34;;;;;;;5.45;1.63;;;;;;;19.56;100.00;98192.44;5019275;28;20090;-94
2022/06/22 09:24:00;;;;;;;4.90;1.40;;;;;;;19.54;100.00;98193.47;5050760;28;20028;-94
2022/06/22 09:26:49;;;;;;;6.10;1.40;;;;;;;19.41;100.00;98194.13;5051393;28;20048;-94
2022/06/22 09:29:53;;;;;;;5.38;1.35;;;;;;;19.62;100.00;98183.31;5048929;28;20063;-95
2022/06/22 09:32:48;;;;;;;4.38;1.20;;;;;;;20.00;100.00;98182.13;5048049;28;20039;-94
2022/06/22 09:35:53;;;;;;;6.10;1.50;;;;;;;20.46;100.00;98182.16;5008864;28;20147;-96
2022/06/22 09:38:34;;;;;;;7.43;1.70;;;;;;;21.11;100.00;98172.97;5047139;28;20029;-96
2022/06/22 09:41:36;;;;;;;10.43;1.90;;;;;;;21.07;100.00;98172.34;5048008;28;20506;-96
2022/06/22 09:44:14;;;;;;;7.70;1.50;;;;;;;20.86;100.00;98181.59;5053239;28;20031;-95
2022/06/22 09:46:57;;;;;;;6.00;1.60;;;;;;;20.80;100.00;98170.41;5052382;28;20363;-92
2022/06/22 09:49:47;;;;;;;5.30;1.60;;;;;;;20.40;100.00;98180.72;5047707;28;20025;-95
2022/06/22 09:52:36;;;;;;;7.97;1.52;;;;;;;20.28;100.00;98176.97;5041679;28;20083;-95
2022/06/22 09:58:13;;;;;;;;;;;;;;;19.70;100.00;98183.75;5042640;28;20044;-91
2022/06/22 10:00:48;;;;;;;5.65;1.42;;;;;;;19.79;100.00;98185.00;5030301;28;19920;-91
2022/06/22 10:03:38;;;;;;;5.78;1.30;;;;;;;20.04;100.00;98183.66;5039221;28;20021;-89
2022/06/22 10:06:29;;;;;;;5.53;1.30;;;;;;;19.78;100.00;98178.03;5049403;28;20025;-88
2022/06/22 10:09:16;;;;;;;5.05;1.55;;;;;;;20.71;100.00;98181.56;5041794;28;20033;-89
2022/06/22 10:12:21;;;;;;;7.00;1.45;;;;;;;20.31;100.00;98175.09;5040190;28;20041;-90
2022/06/22 10:15:11;;;;;;;5.35;1.60;;;;;;;20.62;100.00;98179.44;5039772;28;20071;-91
2022/06/22 10:17:57;;;;;;;5.80;1.60;;;;;;;21.69;100.00;98171.16;5042027;28;20378;-90
2022/06/22 10:20:44;;;;;;;7.45;1.70;;;;;;;21.11;100.00;98175.63;5043314;28;20049;-91
2022/06/22 10:23:29;;;;;;;5.95;2.05;;;;;;;21.82;100.00;98161.47;5051842;28;20029;-90
2022/06/22 10:26:34;;;;;;;5.32;1.30;;;;;;;23.30;100.00;98168.47;5047975;28;20083;-90
2022/06/22 10:29:12;;;;;;;5.28;1.30;;;;;;;22.53;100.00;98171.06;5028340;28;20071;-90
2022/06/22 10:32:13;;;;;;;5.03;1.40;;;;;;;22.13;100.00;98178.03;5040169;28;20486;-91
2022/06/22 10:35:02;;;;;;;7.60;1.95;;;;;;;20.41;100.00;98184.19;5046424;28;20541;-90
2022/06/22 10:37:49;;;;;;;5.82;1.50;;;;;;;21.97;100.00;98180.00;5035374;28;20043;-89
2022/06/22 10:47:19;;;;;;;4.75;1.40;;;;;;;20.91;100.00;98183.00;5020989;28;20059;-90
2022/06/22 10:49:54;;;;;;;6.50;1.73;;;;;;;23.07;100.00;98173.53;5061712;28;20043;-90
2022/06/22 10:53:02;;;;;;;6.32;1.80;;;;;;;24.66;100.00;98172.75;5047977;28;20280;-92
2022/06/22 10:55:50;;;;;;;5.32;1.60;;;;;;;23.56;100.00;98171.03;5046429;28;20514;-93
2022/06/22 10:58:25;;;;;;;6.20;1.70;;;;;;;23.80;100.00;98179.94;5061341;28;20067;-92
2022/06/22 11:01:04;;;;;;;7.40;1.80;;;;;;;24.25;100.00;98178.50;5062084;28;20021;-94
2022/06/22 11:03:52;;;;;;;5.68;1.95;;;;;;;24.98;100.00;98177.41;5051324;28;20044;-92
2022/06/22 11:06:40;;;;;;;6.25;1.60;;;;;;;25.23;100.00;98175.47;5045165;28;20036;-92
2022/06/22 11:09:12;;;;;;;6.43;1.90;;;;;;;24.28;100.00;98179.09;5040546;28;20049;-91
2022/06/22 11:11:50;;;;;;;6.50;2.10;;;;;;;24.67;100.00;98177.09;5059804;28;20017;-94
2022/06/22 11:14:54;;;;;;;5.95;2.25;;;;;;;24.20;100.00;98171.69;5066508;28;20041;-93
2022/06/22 11:17:31;;;;;;;6.55;2.35;;;;;;;24.42;100.00;98167.41;5047361;28;20357;-93
2022/06/22 11:20:22;;;;;;;7.47;2.72;;;;;;;24.43;100.00;98166.44;5047441;28;20127;-93
2022/06/22 11:23:00;;;;;;;7.68;2.70;;;;;;;24.54;100.00;98169.16;5051009;28;20028;-92
2022/06/22 11:32:04;;;;;;;8.07;2.80;;;;;;;20.84;100.00;98170.25;5055081;28;20044;-90
2022/06/22 11:34:35;;;;;;;6.90;2.65;;;;;;;22.16;100.00;98164.56;5048284;28;20028;-91
2022/06/22 11:37:20;;;;;;;8.63;2.60;;;;;;;22.27;100.00;98157.69;5046139;28;20029;-91
2022/06/22 11:40:22;;;;;;;7.20;2.65;;;;;;;22.50;100.00;98156.16;5037551;28;20502;-92
2022/06/22 11:43:03;;;;;;;7.03;2.88;;;;;;;21.52;100.00;98152.75;5042540;28;20525;-89
2022/06/22 11:45:58;;;;;;;9.82;2.72;;;;;;;21.57;100.00;98156.88;5038158;28;20091;-92
2022/06/22 11:48:48;;;;;;;9.38;2.67;;;;;;;22.06;100.00;98154.63;5042924;28;20426;-93
2022/06/22 11:51:22;;;;;;;8.00;2.67;;;;;;;22.14;100.00;98147.88;5042848;28;20028;-93
2022/06/22 11:53:58;;;;;;;8.57;2.60;;;;;;;22.50;100.00;98146.41;5046594;28;20039;-92
2022/06/22 11:56:55;;;;;;;7.32;2.67;;;;;;;22.00;100.00;98155.91;5041001;28;20052;-92
2022/06/22 11:59:57;;;;;;;8.60;2.50;;;;;;;22.74;100.00;98143.03;5047895;28;20123;-93
2022/06/22 12:02:34;;;;;;;6.05;1.98;;;;;;;23.16;100.00;98135.69;5038013;28;20091;-94
2022/06/22 12:05:22;;;;;;;7.85;2.28;;;;;;;23.82;100.00;98132.72;5045873;28;20028;-93
2022/06/22 12:08:11;;;;;;;7.28;2.40;;;;;;;23.51;100.00;98123.47;5048712;28;20360;-93
2022/06/22 12:10:40;;;;;;;6.93;2.00;;;;;;;22.43;99.25;98139.78;5044322;28;20040;-93
2022/06/22 12:13:11;;;;;;;6.80;2.00;;;;;;;23.55;100.00;98132.06;5046415;28;20035;-91
2022/06/22 12:15:38;;;;;;;7.90;1.98;;;;;;;23.43;100.00;98118.69;5049789;28;20025;-93
2022/06/22 12:18:22;;;;;;;9.50;2.63;;;;;;;23.71;99.47;98129.16;5039764;28;20117;-96
2022/06/22 12:21:25;;;;;;;9.32;2.50;;;;;;;23.18;100.00;98127.59;5051087;28;20032;-94
2022/06/22 12:24:15;;;;;;;8.90;2.50;;;;;;;22.99;100.00;98125.34;5054682;28;20024;-92
2022/06/22 12:27:12;;;;;;;7.45;1.85;;;;;;;23.58;96.56;98123.91;5052138;28;20590;-93
2022/06/22 12:29:58;;;;;;;6.85;2.10;;;;;;;23.77;99.67;98110.94;5055211;28;20120;-94
2022/06/22 12:32:36;;;;;;;7.93;2.30;;;;;;;23.23;100.00;98113.97;5050997;28;20041;-96
2022/06/22 12:35:46;;;;;;;6.90;2.25;;;;;;;23.66;100.00;98121.50;5046163;28;20057;-96
2022/06/22 12:38:42;;;;;;;6.53;2.35;;;;;;;23.17;94.68;98124.09;5056086;28;20029;-96
2022/06/22 12:41:31;;;;;;;6.93;1.98;;;;;;;23.75;100.00;98125.31;5055765;28;20083;-94
2022/06/22 12:44:26;;;;;;;7.38;2.50;;;;;;;23.74;100.00;98126.28;5050679;28;20033;-93
2022/06/22 12:47:04;;;;;;;6.72;2.25;;;;;;;24.43;98.38;98122.97;5039039;28;20037;-93
2022/06/22 13:03:32;;;;;;;7.07;2.00;;;;;;;23.83;94.43;98109.63;5013733;28;20225;-96
2022/06/22 13:05:58;;;;;;;6.97;2.15;;;;;;;23.39;97.47;98100.41;5025188;28;20077;-92
2022/06/22 13:08:26;;;;;;;8.10;2.00;;;;;;;23.62;91.99;98106.72;5024449;28;20423;-92
2022/06/22 13:11:21;;;;;;;6.25;1.80;;;;;;;23.58;90.59;98099.94;5012840;28;20500;-93
2022/06/22 13:14:04;;;;;;;6.00;1.88;;;;;;;24.24;97.17;98102.19;4986761;28;20038;-93
2022/06/22 13:16:40;;;;;;;6.85;1.70;;;;;;;24.64;95.34;98107.16;4995246;28;20061;-92
2022/06/22 13:19:30;;;;;;;6.32;1.77;;;;;;;23.55;100.00;98105.47;5003521;28;20101;-91
2022/06/22 13:22:06;;;;;;;6.40;1.75;;;;;;;23.67;100.00;98102.78;4992663;28;20120;-92
2022/06/22 13:24:44;;;;;;;5.82;1.73;;;;;;;23.70;97.48;98096.34;5001511;28;20053;-93
2022/06/22 13:27:38;;;;;;;6.55;1.90;;;;;;;23.83;100.00;98101.66;4994917;28;20057;-94
2022/06/22 13:30:03;;;;;;;5.82;1.50;;;;;;;24.37;96.97;98098.47;4983581;28;20041;-93
2022/06/22 13:32:32;;;;;;;7.50;1.50;;;;;;;24.39;96.46;98090.34;4989579;28;20034;-91
2022/06/22 13:35:19;;;;;;;6.32;1.50;;;;;;;24.17;93.40;98096.47;5008695;28;20030;-91
2022/06/22 13:38:01;;;;;;;6.90;1.63;;;;;;;24.15;91.78;98095.75;5042043;28;20154;-93
2022/06/22 13:40:42;;;;;;;6.03;1.48;;;;;;;24.77;87.06;98099.91;5045948;28;20025;-92